Westhaven, California
Current Conditions -  °F | °C
As of 10:53 PM on Wednesday 22 Oct 2014 (Local Time) from KACV Reporting Station
Moderate Rain Moderate Rain  
Wind Chill: 60°   Ceiling: 5500
Heat Index: 60°   Visibility: 6mi
Dew Point: 57°   Wind: 12mph
Humidity: 90%   Direction: 160°SSE
Pressure: 29.95"   Gusts: NA
Location:  41.1412°N, 124.024°W
Report Text: KACV 230553Z AUTO 16010KT 6SM RA BR FEW043 BKN055 OVC090 16/14 A2995 RMK AO2 SLP147 P0003 60034 T01560139 10189 20150 53004
Loading
Personal Weather Stations






























Interactive Weather Map
Tropical Storm Tracking
New forecast layout! Learn more

10-Day Weather Forecast

Advertisements
Track Severe Weather on mobile